createdAt,value
2016-09-04T00:00:29.343Z,0
2016-09-04T00:01:29.357Z,0
2016-09-04T00:02:29.364Z,0
2016-09-04T00:03:29.415Z,0
2016-09-04T00:04:29.422Z,0
2016-09-04T00:05:29.446Z,0
2016-09-04T00:06:29.462Z,0
2016-09-04T00:07:29.482Z,0
2016-09-04T00:08:29.507Z,0
2016-09-04T00:09:29.531Z,0
2016-09-04T00:10:29.566Z,0
2016-09-04T00:11:29.565Z,0
2016-09-04T00:12:29.597Z,0
2016-09-04T00:13:29.619Z,0
2016-09-04T00:14:29.642Z,0
2016-09-04T00:15:29.656Z,0
2016-09-04T00:16:29.674Z,0
2016-09-04T00:17:29.708Z,0
2016-09-04T00:18:29.730Z,0
2016-09-04T00:19:29.750Z,0
2016-09-04T00:20:29.774Z,0
2016-09-04T00:21:29.793Z,0
2016-09-04T00:22:29.810Z,0
2016-09-04T00:23:29.841Z,0
2016-09-04T00:24:29.861Z,0
2016-09-04T00:25:29.883Z,0
2016-09-04T00:26:29.900Z,0
2016-09-04T00:27:29.917Z,0
2016-09-04T00:28:29.958Z,0
2016-09-04T00:29:29.977Z,0
2016-09-04T00:30:29.983Z,0
2016-09-04T00:31:30.016Z,0
2016-09-04T00:32:30.031Z,0
2016-09-04T00:33:30.052Z,0
2016-09-04T00:34:30.075Z,0
2016-09-04T00:35:30.097Z,0
2016-09-04T00:36:30.111Z,0
2016-09-04T00:37:30.134Z,0
2016-09-04T00:38:30.160Z,0
2016-09-04T00:39:30.200Z,0
2016-09-04T00:40:30.204Z,0
2016-09-04T00:41:30.222Z,0
2016-09-04T00:42:30.240Z,0
2016-09-04T00:43:30.281Z,0
2016-09-04T00:44:30.300Z,0
2016-09-04T00:45:30.314Z,0
2016-09-04T00:46:30.339Z,0
2016-09-04T00:47:30.368Z,0
2016-09-04T00:48:30.377Z,0
2016-09-04T00:49:30.400Z,0
2016-09-04T00:50:30.427Z,0
2016-09-04T00:51:30.443Z,0
2016-09-04T00:52:30.467Z,0
2016-09-04T00:53:30.485Z,0
2016-09-04T00:54:30.519Z,0
2016-09-04T00:55:30.536Z,0
2016-09-04T00:56:30.550Z,0
2016-09-04T00:57:30.580Z,0
2016-09-04T00:58:30.617Z,0
2016-09-04T00:59:30.625Z,0
2016-09-04T01:00:30.635Z,0
2016-09-04T01:01:30.670Z,0
2016-09-04T01:02:30.686Z,0
2016-09-04T01:03:30.716Z,0
2016-09-04T01:04:30.728Z,0
2016-09-04T01:05:30.756Z,0
2016-09-04T01:06:30.774Z,0
2016-09-04T01:07:30.800Z,0
2016-09-04T01:08:30.811Z,0
2016-09-04T01:09:30.848Z,0
2016-09-04T01:10:30.866Z,0
2016-09-04T01:11:30.886Z,0
2016-09-04T01:12:30.906Z,0
2016-09-04T01:13:30.931Z,0
2016-09-04T01:14:30.957Z,0
2016-09-04T01:15:30.967Z,0
2016-09-04T01:16:31.007Z,0
2016-09-04T01:17:31.029Z,0
2016-09-04T01:18:31.040Z,0
2016-09-04T01:19:31.054Z,0
2016-09-04T01:20:31.082Z,0
2016-09-04T01:21:31.111Z,0
2016-09-04T01:22:31.123Z,0
2016-09-04T01:23:31.156Z,0
2016-09-04T01:24:31.159Z,0
2016-09-04T01:25:31.198Z,0
2016-09-04T01:26:31.221Z,0
2016-09-04T01:27:31.237Z,0
2016-09-04T01:28:31.279Z,0
2016-09-04T01:29:31.274Z,0
2016-09-04T01:30:31.292Z,0
2016-09-04T01:31:31.335Z,0
2016-09-04T01:32:31.347Z,0
2016-09-04T01:33:31.375Z,0
2016-09-04T01:34:31.383Z,0
2016-09-04T01:35:31.416Z,0
2016-09-04T01:36:31.429Z,0
2016-09-04T01:37:31.467Z,0
2016-09-04T01:38:31.481Z,0
2016-09-04T01:39:31.498Z,0
2016-09-04T01:40:31.523Z,0
2016-09-04T01:41:31.541Z,0
2016-09-04T01:42:31.568Z,0
2016-09-04T01:43:31.592Z,0
2016-09-04T01:44:31.621Z,0
2016-09-04T01:45:31.627Z,0
2016-09-04T01:46:31.652Z,0
2016-09-04T01:47:31.681Z,0
2016-09-04T01:48:31.699Z,0
2016-09-04T01:49:31.723Z,0
2016-09-04T01:50:31.751Z,0
2016-09-04T01:51:31.759Z,0
2016-09-04T01:52:31.787Z,0
2016-09-04T01:53:31.811Z,0
2016-09-04T01:54:31.834Z,0
2016-09-04T01:55:31.855Z,0
2016-09-04T01:56:31.881Z,0
2016-09-04T01:57:31.900Z,0
2016-09-04T01:58:31.921Z,0
2016-09-04T01:59:31.946Z,0
2016-09-04T02:00:31.962Z,0
2016-09-04T02:01:31.998Z,0
2016-09-04T02:02:32.011Z,0
2016-09-04T02:03:32.033Z,0
2016-09-04T02:04:32.054Z,0
2016-09-04T02:05:32.069Z,0
2016-09-04T02:06:32.103Z,0
2016-09-04T02:07:32.127Z,0
2016-09-04T02:08:32.140Z,0
2016-09-04T02:09:32.169Z,0
2016-09-04T02:10:32.189Z,0
2016-09-04T02:11:32.207Z,0
2016-09-04T02:12:32.227Z,0
2016-09-04T02:13:32.256Z,0
2016-09-04T02:14:32.264Z,0
2016-09-04T02:15:32.300Z,0
2016-09-04T02:16:32.310Z,0
2016-09-04T02:17:32.361Z,0
2016-09-04T02:18:32.379Z,0
2016-09-04T02:19:32.389Z,0
2016-09-04T02:20:32.409Z,0
2016-09-04T02:21:32.430Z,0
2016-09-04T02:22:32.447Z,0
2016-09-04T02:23:32.492Z,0
2016-09-04T02:24:32.491Z,0
2016-09-04T02:25:32.527Z,0
2016-09-04T02:26:32.531Z,0
2016-09-04T02:27:32.569Z,0
2016-09-04T02:28:32.588Z,0
2016-09-04T02:29:32.617Z,0
2016-09-04T02:30:32.625Z,0
2016-09-04T02:31:32.655Z,0
2016-09-04T02:32:32.676Z,0
2016-09-04T02:33:32.690Z,0
2016-09-04T02:34:32.722Z,0
2016-09-04T02:35:32.738Z,0
2016-09-04T02:36:32.758Z,0
2016-09-04T02:37:32.789Z,0
2016-09-04T02:38:32.801Z,0
2016-09-04T02:39:32.835Z,0
2016-09-04T02:40:32.850Z,0
2016-09-04T02:41:32.884Z,0
2016-09-04T02:42:32.900Z,0
2016-09-04T02:43:32.925Z,0
2016-09-04T02:44:32.939Z,0
2016-09-04T02:45:32.969Z,0
2016-09-04T02:46:32.987Z,0
2016-09-04T02:47:33.014Z,0
2016-09-04T02:48:33.026Z,0
2016-09-04T02:49:33.052Z,0
2016-09-04T02:50:33.075Z,0
2016-09-04T02:51:33.098Z,0
2016-09-04T02:52:33.127Z,0
2016-09-04T02:53:33.142Z,0
2016-09-04T02:54:33.167Z,0
2016-09-04T02:55:33.186Z,0
2016-09-04T02:56:33.224Z,0
2016-09-04T02:57:33.229Z,0
2016-09-04T02:58:33.252Z,0
2016-09-04T02:59:33.286Z,0
2016-09-04T03:00:33.292Z,0
2016-09-04T03:01:33.324Z,0
2016-09-04T03:02:33.359Z,0
2016-09-04T03:03:33.365Z,0
2016-09-04T03:04:33.381Z,0
2016-09-04T03:05:33.417Z,0
2016-09-04T03:06:33.432Z,0
2016-09-04T03:07:33.464Z,0
2016-09-04T03:08:33.470Z,0
2016-09-04T03:09:33.494Z,0
2016-09-04T03:10:33.524Z,0
2016-09-04T03:11:33.556Z,0
2016-09-04T03:12:33.570Z,0
2016-09-04T03:13:33.588Z,0
2016-09-04T03:14:33.607Z,0
2016-09-04T03:15:33.632Z,0
2016-09-04T03:16:33.666Z,0
2016-09-04T03:17:33.676Z,0
2016-09-04T03:18:33.711Z,0
2016-09-04T03:19:33.718Z,0
2016-09-04T03:20:33.752Z,0
2016-09-04T03:21:33.773Z,0
2016-09-04T03:22:33.795Z,0
2016-09-04T03:23:33.811Z,0
2016-09-04T03:24:33.835Z,0
2016-09-04T03:25:33.862Z,0
2016-09-04T03:26:33.888Z,0
2016-09-04T03:27:33.908Z,0
2016-09-04T03:28:33.931Z,0
2016-09-04T03:29:33.946Z,0
2016-09-04T03:30:33.966Z,0
2016-09-04T03:31:34.001Z,0
2016-09-04T03:32:34.021Z,0
2016-09-04T03:33:34.037Z,0
2016-09-04T03:34:34.058Z,0
2016-09-04T03:35:34.082Z,0
2016-09-04T03:36:34.125Z,0
2016-09-04T03:37:34.124Z,0
2016-09-04T03:38:34.139Z,0
2016-09-04T03:39:34.176Z,0
2016-09-04T03:40:34.198Z,0
2016-09-04T03:41:34.222Z,0
2016-09-04T03:42:34.241Z,0
2016-09-04T03:43:34.261Z,0
2016-09-04T03:44:34.288Z,0
2016-09-04T03:45:34.303Z,0
2016-09-04T03:46:34.335Z,0
2016-09-04T03:47:34.346Z,0
2016-09-04T03:48:34.371Z,0
2016-09-04T03:49:34.398Z,0
2016-09-04T03:50:34.433Z,0
2016-09-04T03:51:34.438Z,0
2016-09-04T03:52:34.454Z,0
2016-09-04T03:53:34.491Z,0
2016-09-04T03:54:34.531Z,0
2016-09-04T03:55:34.528Z,0
2016-09-04T03:56:34.554Z,0
2016-09-04T03:57:34.565Z,0
2016-09-04T03:58:34.607Z,0
2016-09-04T03:59:34.622Z,0
2016-09-04T04:01:49.495Z,0
2016-09-04T04:02:34.678Z,0
2016-09-04T04:03:34.695Z,0
2016-09-04T04:04:34.713Z,0
2016-09-04T04:05:34.729Z,0
2016-09-04T04:06:34.767Z,0
2016-09-04T04:07:34.785Z,0
2016-09-04T04:08:34.804Z,0
2016-09-04T04:09:34.824Z,0
2016-09-04T04:10:34.848Z,0
2016-09-04T04:11:34.866Z,0
2016-09-04T04:12:34.895Z,0
2016-09-04T04:13:34.908Z,0
2016-09-04T04:14:34.945Z,0
2016-09-04T04:15:34.958Z,0
2016-09-04T04:16:34.970Z,0
2016-09-04T04:17:35.012Z,0
2016-09-04T04:18:35.029Z,0
2016-09-04T04:19:35.048Z,0
2016-09-04T04:20:35.084Z,0
2016-09-04T04:21:35.099Z,4
2016-09-04T04:22:35.117Z,4
2016-09-04T04:23:35.145Z,4
2016-09-04T04:24:35.173Z,4
2016-09-04T04:25:35.178Z,4
2016-09-04T04:26:35.214Z,4
2016-09-04T04:27:35.226Z,4
2016-09-04T04:28:35.257Z,4
2016-09-04T04:29:35.282Z,8
2016-09-04T04:30:35.285Z,4
2016-09-04T04:31:35.332Z,8
2016-09-04T04:32:35.341Z,8
2016-09-04T04:33:35.357Z,12
2016-09-04T04:34:35.402Z,12
2016-09-04T04:35:35.403Z,12
2016-09-04T04:36:35.435Z,20
2016-09-04T04:37:35.449Z,20
2016-09-04T04:38:35.488Z,24
2016-09-04T04:39:35.490Z,28
2016-09-04T04:40:35.518Z,28
2016-09-04T04:41:35.544Z,32
2016-09-04T04:42:35.565Z,36
2016-09-04T04:43:35.579Z,40
2016-09-04T04:44:35.603Z,44
2016-09-04T04:45:35.637Z,48
2016-09-04T04:46:35.661Z,52
2016-09-04T04:47:35.665Z,52
2016-09-04T04:48:35.701Z,52
2016-09-04T04:49:35.724Z,52
2016-09-04T04:50:35.747Z,64
2016-09-04T04:51:35.769Z,76
2016-09-04T04:52:35.784Z,84
2016-09-04T04:53:35.809Z,88
2016-09-04T04:54:35.834Z,92
2016-09-04T04:55:35.864Z,100
2016-09-04T04:56:35.874Z,112
2016-09-04T04:57:35.901Z,124
2016-09-04T04:58:35.928Z,144
2016-09-04T04:59:35.943Z,160
2016-09-04T05:00:35.966Z,176
2016-09-04T05:01:35.997Z,192
2016-09-04T05:02:36.013Z,204
2016-09-04T05:03:36.027Z,220
2016-09-04T05:04:36.064Z,236
2016-09-04T05:05:36.073Z,248
2016-09-04T05:06:36.100Z,260
2016-09-04T05:07:36.126Z,280
2016-09-04T05:08:36.147Z,296
2016-09-04T05:09:36.163Z,312
2016-09-04T05:10:36.182Z,328
2016-09-04T05:11:36.209Z,340
2016-09-04T05:12:36.242Z,336
2016-09-04T05:13:36.247Z,328
2016-09-04T05:14:36.276Z,328
2016-09-04T05:15:36.294Z,328
2016-09-04T05:16:36.329Z,336
2016-09-04T05:17:36.334Z,344
2016-09-04T05:18:36.370Z,352
2016-09-04T05:19:36.385Z,360
2016-09-04T05:20:36.416Z,360
2016-09-04T05:21:36.423Z,344
2016-09-04T05:22:36.468Z,312
2016-09-04T05:23:36.471Z,284
2016-09-04T05:24:36.507Z,284
2016-09-04T05:25:36.519Z,292
2016-09-04T05:26:36.544Z,292
2016-09-04T05:27:36.562Z,300
2016-09-04T05:28:36.578Z,308
2016-09-04T05:29:36.607Z,312
2016-09-04T05:30:36.641Z,312
2016-09-04T05:31:36.657Z,324
2016-09-04T05:32:36.672Z,332
2016-09-04T05:33:36.699Z,340
2016-09-04T05:34:36.723Z,352
2016-09-04T05:35:36.745Z,360
2016-09-04T05:36:36.766Z,364
2016-09-04T05:37:36.777Z,384
2016-09-04T05:38:36.804Z,408
2016-09-04T05:39:36.830Z,416
2016-09-04T05:40:36.849Z,400
2016-09-04T05:41:36.867Z,380
2016-09-04T05:42:36.896Z,356
2016-09-04T05:43:36.928Z,340
2016-09-04T05:44:36.941Z,332
2016-09-04T05:45:36.962Z,344
2016-09-04T05:46:36.983Z,364
2016-09-04T05:47:36.996Z,396
2016-09-04T05:48:37.029Z,440
2016-09-04T05:49:37.046Z,480
2016-09-04T05:50:37.077Z,516
2016-09-04T05:51:37.103Z,564
2016-09-04T05:52:37.115Z,624
2016-09-04T05:53:37.132Z,664
2016-09-04T05:54:37.157Z,712
2016-09-04T05:55:37.183Z,760
2016-09-04T05:56:37.202Z,772
2016-09-04T05:57:37.223Z,740
2016-09-04T05:58:37.245Z,680
2016-09-04T05:59:37.276Z,640
2016-09-04T06:00:37.298Z,624
2016-09-04T06:01:37.311Z,632
2016-09-04T06:02:37.351Z,664
2016-09-04T06:03:37.351Z,708
2016-09-04T06:04:37.389Z,764
2016-09-04T06:05:37.398Z,860
2016-09-04T06:06:37.427Z,928
2016-09-04T06:07:37.444Z,940
2016-09-04T06:08:37.468Z,940
2016-09-04T06:09:37.478Z,956
2016-09-04T06:10:38.228Z,992
2016-09-04T06:11:37.531Z,1076
2016-09-04T06:12:37.559Z,1128
2016-09-04T06:13:37.573Z,1184
2016-09-04T06:14:37.614Z,1292
2016-09-04T06:15:37.619Z,1436
2016-09-04T06:16:37.645Z,1588
2016-09-04T06:17:37.662Z,1692
2016-09-04T06:18:37.694Z,1760
2016-09-04T06:19:37.711Z,1876
2016-09-04T06:20:37.731Z,2020
2016-09-04T06:21:37.750Z,2208
2016-09-04T06:22:37.775Z,2428
2016-09-04T06:23:37.803Z,2612
2016-09-04T06:24:37.817Z,2712
2016-09-04T06:25:37.837Z,2720
2016-09-04T06:26:37.869Z,2696
2016-09-04T06:27:37.883Z,2676
2016-09-04T06:28:37.908Z,2636
2016-09-04T06:29:37.928Z,2552
2016-09-04T06:30:37.956Z,2448
2016-09-04T06:31:37.978Z,2312
2016-09-04T06:32:37.995Z,2120
2016-09-04T06:33:38.017Z,1956
2016-09-04T06:34:38.043Z,1848
2016-09-04T06:35:38.071Z,1736
2016-09-04T06:36:38.079Z,1616
2016-09-04T06:37:38.110Z,1536
2016-09-04T06:38:38.133Z,1488
2016-09-04T06:39:38.167Z,1464
2016-09-04T06:40:38.185Z,1492
2016-09-04T06:41:38.189Z,1552
2016-09-04T06:42:38.212Z,1588
2016-09-04T06:43:38.244Z,1600
2016-09-04T06:44:38.255Z,1564
2016-09-04T06:45:38.285Z,1552
2016-09-04T06:46:38.305Z,1620
2016-09-04T06:47:38.327Z,1812
2016-09-04T06:48:38.353Z,1996
2016-09-04T06:49:38.375Z,2128
2016-09-04T06:50:38.393Z,2200
2016-09-04T06:51:38.417Z,2200
2016-09-04T06:52:38.447Z,2100
2016-09-04T06:53:38.450Z,1928
2016-09-04T06:54:38.493Z,1760
2016-09-04T06:55:38.507Z,1640
2016-09-04T06:56:38.526Z,1552
2016-09-04T06:57:38.556Z,1496
2016-09-04T06:58:38.571Z,1456
2016-09-04T06:59:38.591Z,1412
2016-09-04T07:00:38.623Z,1364
2016-09-04T07:01:38.638Z,1316
2016-09-04T07:02:38.679Z,1244
2016-09-04T07:03:38.689Z,1160
2016-09-04T07:04:38.713Z,1080
2016-09-04T07:05:38.745Z,996
2016-09-04T07:06:38.750Z,936
2016-09-04T07:07:38.761Z,912
2016-09-04T07:08:38.795Z,916
2016-09-04T07:09:38.824Z,948
2016-09-04T07:10:38.854Z,1036
2016-09-04T07:11:38.863Z,1144
2016-09-04T07:12:38.885Z,1268
2016-09-04T07:13:38.914Z,1420
2016-09-04T07:14:38.935Z,1616
2016-09-04T07:15:38.943Z,1800
2016-09-04T07:16:38.972Z,1956
2016-09-04T07:17:38.989Z,2100
2016-09-04T07:18:39.011Z,2192
2016-09-04T07:19:39.042Z,2212
2016-09-04T07:20:39.058Z,2248
2016-09-04T07:21:39.086Z,2280
2016-09-04T07:22:39.096Z,2296
2016-09-04T07:23:39.113Z,2332
2016-09-04T07:24:39.143Z,2400
2016-09-04T07:25:39.172Z,2484
2016-09-04T07:26:39.191Z,2592
2016-09-04T07:27:39.201Z,2784
2016-09-04T07:28:39.234Z,3088
2016-09-04T07:29:39.250Z,3424
2016-09-04T07:30:39.285Z,3612
2016-09-04T07:31:39.308Z,3592
2016-09-04T07:32:39.323Z,3296
2016-09-04T07:33:39.336Z,2876
2016-09-04T07:34:39.368Z,2600
2016-09-04T07:35:39.394Z,2380
2016-09-04T07:36:39.417Z,2148
2016-09-04T07:37:39.441Z,1948
2016-09-04T07:38:39.459Z,1872
2016-09-04T07:39:39.472Z,1984
2016-09-04T07:40:39.515Z,2268
2016-09-04T07:41:39.529Z,2668
2016-09-04T07:42:39.562Z,3116
2016-09-04T07:43:39.563Z,3452
2016-09-04T07:44:39.587Z,3576
2016-09-04T07:45:39.621Z,3524
2016-09-04T07:46:39.647Z,3376
2016-09-04T07:47:39.673Z,3156
2016-09-04T07:48:39.683Z,2832
2016-09-04T07:49:39.696Z,2472
2016-09-04T07:50:39.733Z,2072
2016-09-04T07:51:39.752Z,1752
2016-09-04T07:52:39.767Z,1616
2016-09-04T07:53:39.791Z,1700
2016-09-04T07:54:39.811Z,1816
2016-09-04T07:55:39.838Z,1816
2016-09-04T07:56:39.854Z,1604
2016-09-04T07:57:39.874Z,1280
2016-09-04T07:58:39.907Z,1104
2016-09-04T07:59:39.945Z,1148
2016-09-04T08:00:39.950Z,1348
2016-09-04T08:01:39.970Z,1488
2016-09-04T08:02:39.996Z,1496
2016-09-04T08:03:40.012Z,1428
2016-09-04T08:04:40.043Z,1376
2016-09-04T08:05:40.054Z,1260
2016-09-04T08:06:40.079Z,1148
2016-09-04T08:07:40.121Z,1268
2016-09-04T08:08:40.133Z,1532
2016-09-04T08:09:40.147Z,1772
2016-09-04T08:10:40.169Z,2160
2016-09-04T08:11:40.198Z,2516
2016-09-04T08:12:40.220Z,2456
2016-09-04T08:13:40.243Z,2284
2016-09-04T08:14:40.263Z,2392
2016-09-04T08:15:40.281Z,2540
2016-09-04T08:16:40.307Z,2732
2016-09-04T08:17:40.331Z,2968
2016-09-04T08:18:40.367Z,3212
2016-09-04T08:19:40.368Z,3572
2016-09-04T08:20:40.390Z,4016
2016-09-04T08:21:40.415Z,4528
2016-09-04T08:22:40.440Z,5108
2016-09-04T08:23:40.460Z,5616
2016-09-04T08:24:40.484Z,6060
2016-09-04T08:25:40.506Z,6368
2016-09-04T08:26:40.531Z,6432
2016-09-04T08:27:40.552Z,6320
2016-09-04T08:28:40.588Z,6164
2016-09-04T08:29:40.598Z,6084
2016-09-04T08:30:40.629Z,6144
2016-09-04T08:31:40.647Z,6220
2016-09-04T08:32:40.666Z,6260
2016-09-04T08:33:40.692Z,6284
2016-09-04T08:34:40.709Z,6312
2016-09-04T08:35:40.727Z,6440
2016-09-04T08:36:40.759Z,6596
2016-09-04T08:37:40.778Z,6708
2016-09-04T08:38:40.808Z,6844
2016-09-04T08:39:40.825Z,6868
2016-09-04T08:40:40.851Z,6716
2016-09-04T08:41:40.872Z,6372
2016-09-04T08:42:40.895Z,5864
2016-09-04T08:43:40.913Z,5320
2016-09-04T08:44:40.933Z,4880
2016-09-04T08:45:40.964Z,4704
2016-09-04T08:46:40.994Z,4720
2016-09-04T08:47:41.000Z,4724
2016-09-04T08:48:41.025Z,4676
2016-09-04T08:49:41.051Z,4696
2016-09-04T08:50:41.078Z,4800
2016-09-04T08:51:41.108Z,4940
2016-09-04T08:52:41.127Z,5120
2016-09-04T08:53:41.137Z,5376
2016-09-04T08:54:41.174Z,5708
2016-09-04T08:55:41.183Z,6040
2016-09-04T08:56:41.209Z,6276
2016-09-04T08:57:41.240Z,6412
2016-09-04T08:58:41.245Z,6496
2016-09-04T08:59:41.292Z,6580
2016-09-04T09:00:41.307Z,6548
2016-09-04T09:01:41.337Z,6340
2016-09-04T09:02:41.356Z,6244
2016-09-04T09:03:41.371Z,6524
2016-09-04T09:04:41.395Z,7028
2016-09-04T09:05:41.428Z,7496
2016-09-04T09:06:41.452Z,7724
2016-09-04T09:07:41.467Z,7892
2016-09-04T09:08:41.492Z,7964
2016-09-04T09:09:41.507Z,8020
2016-09-04T09:10:41.541Z,8140
2016-09-04T09:11:41.565Z,8296
2016-09-04T09:12:41.595Z,8544
2016-09-04T09:13:41.596Z,8700
2016-09-04T09:14:41.629Z,8864
2016-09-04T09:15:41.653Z,9028
2016-09-04T09:16:41.682Z,9172
2016-09-04T09:17:41.694Z,9300
2016-09-04T09:18:41.721Z,9532
2016-09-04T09:19:41.745Z,9660
2016-09-04T09:20:41.784Z,9744
2016-09-04T09:21:41.785Z,9980
2016-09-04T09:22:41.817Z,10204
2016-09-04T09:23:41.839Z,10440
2016-09-04T09:24:41.863Z,10584
2016-09-04T09:25:41.876Z,10672
2016-09-04T09:26:41.911Z,10236
2016-09-04T09:27:41.942Z,10272
2016-09-04T09:28:41.963Z,10460
2016-09-04T09:29:41.981Z,10836
2016-09-04T09:30:42.012Z,10276
2016-09-04T09:31:42.031Z,10012
2016-09-04T09:32:42.046Z,9748
2016-09-04T09:33:42.074Z,9396
2016-09-04T09:34:42.116Z,9404
2016-09-04T09:35:42.119Z,8864
2016-09-04T09:36:42.152Z,8584
2016-09-04T09:37:42.165Z,8832
2016-09-04T09:38:42.200Z,9640
2016-09-04T09:39:42.217Z,9112
2016-09-04T09:40:42.262Z,8028
2016-09-04T09:41:42.259Z,7572
2016-09-04T09:42:42.292Z,7696
2016-09-04T09:43:42.314Z,7812
2016-09-04T09:44:42.346Z,7756
2016-09-04T09:45:42.359Z,7716
2016-09-04T09:46:42.376Z,7988
2016-09-04T09:47:42.408Z,8300
2016-09-04T09:48:42.443Z,8732
2016-09-04T09:49:42.477Z,9456
2016-09-04T09:50:42.486Z,9920
2016-09-04T09:51:42.500Z,9892
2016-09-04T09:52:42.534Z,9356
2016-09-04T09:53:42.555Z,8884
2016-09-04T09:54:42.582Z,9396
2016-09-04T09:55:42.603Z,9440
2016-09-04T09:56:42.632Z,9980
2016-09-04T09:57:42.645Z,10604
2016-09-04T09:58:42.681Z,11132
2016-09-04T09:59:43.900Z,10772
2016-09-04T10:00:42.722Z,10932
2016-09-04T10:01:42.838Z,11084
2016-09-04T10:02:42.774Z,10872
2016-09-04T10:03:42.805Z,11560
2016-09-04T10:04:42.876Z,11532
2016-09-04T10:05:43.087Z,9956
2016-09-04T10:06:43.048Z,11768
2016-09-04T10:07:47.587Z,11680
2016-09-04T10:08:49.100Z,11936
2016-09-04T10:09:44.294Z,11976
2016-09-04T10:10:45.327Z,11100
2016-09-04T10:11:45.958Z,10512
2016-09-04T10:12:49.263Z,9772
2016-09-04T10:13:58.064Z,8908
2016-09-04T10:14:53.413Z,8508
2016-09-04T10:15:44.506Z,8164
2016-09-04T10:16:43.395Z,7768
2016-09-04T10:17:43.133Z,7772
2016-09-04T10:18:43.191Z,7024
2016-09-04T10:19:43.180Z,6392
2016-09-04T10:20:43.207Z,5200
2016-09-04T10:21:43.249Z,4332
2016-09-04T10:22:43.260Z,3808
2016-09-04T10:23:43.510Z,3400
2016-09-04T10:24:43.311Z,3020
2016-09-04T10:25:43.349Z,2644
2016-09-04T10:26:43.410Z,2312
2016-09-04T10:27:43.425Z,2072
2016-09-04T10:28:43.417Z,1848
2016-09-04T10:29:43.985Z,1672
2016-09-04T10:30:43.683Z,1552
2016-09-04T10:31:44.098Z,1464
2016-09-04T10:32:43.509Z,1400
2016-09-04T10:33:44.658Z,1328
2016-09-04T10:34:43.590Z,1276
2016-09-04T10:35:43.566Z,1188
2016-09-04T10:36:43.895Z,1124
2016-09-04T10:37:43.613Z,1252
2016-09-04T10:38:43.649Z,1468
2016-09-04T10:39:43.659Z,1740
2016-09-04T10:40:45.387Z,2076
2016-09-04T10:41:43.768Z,2364
2016-09-04T10:42:45.940Z,2612
2016-09-04T10:43:48.136Z,2744
2016-09-04T10:44:45.844Z,2748
2016-09-04T10:45:53.855Z,2608
2016-09-04T10:46:47.444Z,2468
2016-09-04T10:47:47.551Z,2340
2016-09-04T10:49:11.637Z,2212
2016-09-04T10:50:20.500Z,2124
2016-09-04T10:51:14.975Z,2000
2016-09-04T10:52:14.628Z,1836
2016-09-04T10:53:13.767Z,1692
2016-09-04T10:54:13.630Z,1568
2016-09-04T10:55:13.738Z,1456
2016-09-04T10:56:11.695Z,1372
2016-09-04T10:57:11.225Z,1352
2016-09-04T10:58:10.282Z,1428
2016-09-04T10:59:08.267Z,1584
2016-09-04T11:00:10.324Z,1768
2016-09-04T11:01:08.715Z,1956
2016-09-04T11:02:53.689Z,2200
2016-09-04T11:03:51.236Z,2336
2016-09-04T11:04:54.641Z,2456
2016-09-04T11:05:45.662Z,2640
2016-09-04T11:08:14.358Z,3248
2016-09-04T11:09:14.863Z,3496
2016-09-04T11:10:13.626Z,3576
2016-09-04T11:11:16.222Z,3684
2016-09-04T11:12:13.922Z,3700
2016-09-04T11:13:14.153Z,3740
2016-09-04T11:14:13.522Z,3748
2016-09-04T11:15:05.407Z,3752
2016-09-04T11:16:05.279Z,3992
2016-09-04T11:16:53.622Z,4060
2016-09-04T11:18:04.298Z,4040
2016-09-04T11:18:49.406Z,4004
2016-09-04T11:19:52.597Z,3756
2016-09-04T11:20:50.919Z,3596
2016-09-04T11:21:50.216Z,3368
2016-09-04T11:22:47.226Z,3116
2016-09-04T11:23:45.423Z,2864
2016-09-04T11:24:45.695Z,2616
2016-09-04T11:25:45.829Z,2360
2016-09-04T11:26:45.502Z,2140
2016-09-04T11:27:44.785Z,1952
2016-09-04T11:28:45.023Z,1776
2016-09-04T11:29:45.787Z,1620
2016-09-04T11:30:44.860Z,1496
2016-09-04T11:31:48.594Z,1388
2016-09-04T11:32:44.910Z,1304
2016-09-04T11:33:45.021Z,1228
2016-09-04T11:34:45.044Z,1164
2016-09-04T11:35:44.990Z,1084
2016-09-04T11:36:44.995Z,1028
2016-09-04T11:37:45.323Z,964
2016-09-04T11:38:45.040Z,912
2016-09-04T11:39:45.060Z,876
2016-09-04T11:40:45.078Z,840
2016-09-04T11:41:45.315Z,812
2016-09-04T11:42:45.634Z,788
2016-09-04T11:43:45.163Z,772
2016-09-04T11:44:45.168Z,752
2016-09-04T11:45:45.345Z,728
2016-09-04T11:46:45.222Z,704
2016-09-04T11:47:45.235Z,684
2016-09-04T11:48:45.329Z,664
2016-09-04T11:49:45.293Z,648
2016-09-04T11:50:45.299Z,632
2016-09-04T11:51:45.878Z,624
2016-09-04T11:52:45.355Z,612
2016-09-04T11:53:45.392Z,600
2016-09-04T11:54:45.777Z,584
2016-09-04T11:55:45.416Z,576
2016-09-04T11:56:45.537Z,568
2016-09-04T11:57:45.484Z,532
2016-09-04T11:58:45.487Z,496
2016-09-04T11:59:45.520Z,488
2016-09-04T12:00:45.834Z,504
2016-09-04T12:01:45.562Z,532
2016-09-04T12:02:45.588Z,552
2016-09-04T12:03:45.669Z,556
2016-09-04T12:04:45.634Z,540
2016-09-04T12:05:45.655Z,524
2016-09-04T12:06:46.376Z,512
2016-09-04T12:07:45.684Z,504
2016-09-04T12:08:45.728Z,500
2016-09-04T12:09:46.005Z,500
2016-09-04T12:10:45.759Z,500
2016-09-04T12:11:45.786Z,508
2016-09-04T12:12:45.841Z,512
2016-09-04T12:13:45.845Z,524
2016-09-04T12:14:45.839Z,536
2016-09-04T12:15:45.871Z,560
2016-09-04T12:16:45.992Z,604
2016-09-04T12:17:47.015Z,672
2016-09-04T12:18:46.596Z,740
2016-09-04T12:19:47.081Z,804
2016-09-04T12:20:47.258Z,880
2016-09-04T12:21:46.051Z,976
2016-09-04T12:22:46.156Z,1080
2016-09-04T12:23:46.711Z,1188
2016-09-04T12:24:46.361Z,1296
2016-09-04T12:25:47.203Z,1376
2016-09-04T12:26:59.481Z,1404
2016-09-04T12:27:46.337Z,1424
2016-09-04T12:28:47.180Z,1528
2016-09-04T12:29:46.264Z,1744
2016-09-04T12:30:46.451Z,2012
2016-09-04T12:32:24.017Z,2364
2016-09-04T12:33:18.526Z,2512
2016-09-04T12:33:53.788Z,2548
2016-09-04T12:34:47.175Z,2512
2016-09-04T12:35:46.729Z,2492
2016-09-04T12:37:54.347Z,2340
2016-09-04T12:38:47.210Z,2008
2016-09-04T12:39:47.218Z,1816
2016-09-04T12:40:59.604Z,1604
2016-09-04T12:42:09.700Z,1392
2016-09-04T12:42:47.604Z,1260
2016-09-04T12:43:46.752Z,1088
2016-09-04T12:44:46.769Z,1084
2016-09-04T12:45:46.793Z,840
2016-09-04T12:46:46.832Z,748
2016-09-04T12:47:46.835Z,704
2016-09-04T12:48:46.864Z,656
2016-09-04T12:49:46.871Z,596
2016-09-04T12:50:46.951Z,632
2016-09-04T12:51:46.929Z,792
2016-09-04T12:52:46.938Z,1080
2016-09-04T12:53:46.976Z,1268
2016-09-04T12:54:46.985Z,1360
2016-09-04T12:55:47.021Z,1460
2016-09-04T12:56:47.065Z,1648
2016-09-04T12:57:47.056Z,2008
2016-09-04T12:58:47.075Z,2688
2016-09-04T12:59:47.109Z,3524
2016-09-04T13:00:47.121Z,4516
2016-09-04T13:01:47.149Z,5832
2016-09-04T13:02:47.167Z,7376
2016-09-04T13:03:47.250Z,8980
2016-09-04T13:04:47.274Z,9920
2016-09-04T13:05:47.239Z,10848
2016-09-04T13:06:50.516Z,11196
2016-09-04T13:07:51.113Z,12728
2016-09-04T13:08:49.231Z,13520
2016-09-04T13:10:17.732Z,12820
2016-09-04T13:10:56.776Z,13620
2016-09-04T13:11:47.384Z,14112
2016-09-04T13:12:47.398Z,14908
2016-09-04T13:13:47.466Z,15124
2016-09-04T13:14:47.452Z,11308
2016-09-04T13:15:47.871Z,11700
2016-09-04T13:16:47.483Z,11204
2016-09-04T13:17:47.510Z,10096
2016-09-04T13:18:47.614Z,10008
2016-09-04T13:19:47.553Z,9856
2016-09-04T13:20:47.585Z,8744
2016-09-04T13:21:47.601Z,7860
2016-09-04T13:22:47.632Z,6764
2016-09-04T13:23:47.645Z,5492
2016-09-04T13:24:47.675Z,6096
2016-09-04T13:25:47.712Z,6900
2016-09-04T13:26:47.780Z,6588
2016-09-04T13:27:47.739Z,6280
2016-09-04T13:28:47.771Z,6412
2016-09-04T13:29:47.797Z,7116
2016-09-04T13:30:47.811Z,8160
2016-09-04T13:31:47.851Z,8024
2016-09-04T13:32:47.884Z,6968
2016-09-04T13:33:47.970Z,6920
2016-09-04T13:34:47.910Z,8016
2016-09-04T13:35:47.973Z,7644
2016-09-04T13:36:47.985Z,7688
2016-09-04T13:37:47.985Z,7924
2016-09-04T13:38:48.008Z,7624
2016-09-04T13:39:48.028Z,7428
2016-09-04T13:40:48.085Z,7724
2016-09-04T13:41:48.103Z,7452
2016-09-04T13:42:48.108Z,8572
2016-09-04T13:43:48.135Z,10072
2016-09-04T13:44:48.145Z,9648
2016-09-04T13:45:48.205Z,5840
2016-09-04T13:46:48.212Z,5676
2016-09-04T13:47:48.224Z,4608
2016-09-04T13:48:48.236Z,4692
2016-09-04T13:49:48.297Z,3596
2016-09-04T13:50:48.291Z,2972
2016-09-04T13:51:48.322Z,2080
2016-09-04T13:52:48.341Z,1764
2016-09-04T13:53:48.405Z,1628
2016-09-04T13:54:48.421Z,1536